Time;durP1;ratioP1;P1;durP2;ratioP2;P2;SDS_P1;SDS_P2;PMS_P1;PMS_P2;Temp;Humidity;BMP_temperature;BMP_pressure;BME280_temperature;BME280_humidity;BME280_pressure;Samples;Min_cycle;Max_cycle;Signal;HPM_P1;HPM_P2
2023/03/07 00:01:04;;;;;;;;;;;;;;;;;;4997853;28;19928;-70
2023/03/07 00:03:29;;;;;;;;;;;;;;;;;;4999152;28;19971;-69
2023/03/07 00:05:55;;;;;;;;;;;;;;;;;;5020560;28;19920;-69
2023/03/07 00:08:20;;;;;;;;;;;;;;;;;;5000357;28;20000;-69
2023/03/07 00:10:45;;;;;;;;;;;;;;;;;;5013167;28;20682;-68
2023/03/07 00:13:13;;;;;;;;;;;;;;;;;;4996655;28;20114;-68
2023/03/07 00:15:39;;;;;;;;;;;;;;;;;;5017674;28;19916;-68
2023/03/07 00:18:04;;;;;;;;;;;;;;;;;;5002254;28;20043;-69
2023/03/07 00:20:29;;;;;;;;;;;;;;;;;;5024580;28;19924;-69
2023/03/07 00:22:55;;;;;;;;;;;;;;;;;;5019836;28;19921;-69
2023/03/07 00:25:20;;;;;;;;;;;;;;;;;;5019328;28;19932;-67
2023/03/07 00:27:45;;;;;;;;;;;;;;;;;;5022902;28;19931;-67
2023/03/07 00:30:11;;;;;;;;;;;;;;;;;;5028416;28;21518;-68
2023/03/07 00:32:36;;;;;;;;;;;;;;;;;;5009548;28;20441;-66
2023/03/07 00:35:02;;;;;;;;;;;;;;;;;;5026687;28;20372;-69
2023/03/07 00:40:21;;;;;;;;;;;;;;;;;;5028161;28;20475;-67
2023/03/07 00:42:51;;;;;;;;;;;;;;;;;;5027209;28;20388;-68
2023/03/07 00:45:35;;;;;;;;;;;;;;;;;;5028771;28;19916;-68
2023/03/07 00:48:01;;;;;;;;;;;;;;;;;;5008987;28;19924;-69
2023/03/07 00:50:26;;;;;;;;;;;;;;;;;;5012799;28;19923;-70
2023/03/07 00:52:51;;;;;;;;;;;;;;;;;;5008257;28;19921;-68
2023/03/07 00:55:17;;;;;;;;;;;;;;;;;;5027735;28;19923;-69
2023/03/07 00:57:42;;;;;;;;;;;;;;;;;;5027447;28;19921;-70
2023/03/07 01:00:07;;;;;;;;;;;;;;;;;;5025257;28;19916;-70
2023/03/07 01:02:33;;;;;;;;;;;;;;;;;;5027504;28;20315;-71
2023/03/07 01:04:58;;;;;;;;;;;;;;;;;;5009499;28;19928;-70
2023/03/07 01:07:24;;;;;;;;;;;;;;;;;;5045324;28;19917;-70
2023/03/07 01:09:50;;;;;;;;;;;;;;;;;;5026748;28;20028;-71
2023/03/07 01:12:15;;;;;;;;;;;;;;;;;;5026084;28;19943;-72
2023/03/07 01:14:40;;;;;;;;;;;;;;;;;;5029079;28;19978;-71
2023/03/07 01:17:09;;;;;;;;;;;;;;;;;;5001523;28;19966;-70
2023/03/07 01:19:34;;;;;;;;;;;;;;;;;;5020033;28;20587;-69
2023/03/07 01:22:00;;;;;;;;;;;;;;;;;;5028130;28;19935;-71
2023/03/07 01:24:27;;;;;;;;;;;;;;;;;;5028565;28;20455;-68
2023/03/07 01:26:55;;;;;;;;;;;;;;;;;;5007829;28;20625;-70
2023/03/07 01:29:21;;;;;;;;;;;;;;;;;;5007290;28;20413;-69
2023/03/07 01:31:49;;;;;;;;;;;;;;;;;;5024752;28;19920;-70
2023/03/07 01:34:17;;;;;;;;;;;;;;;;;;5009045;28;19944;-72
2023/03/07 01:36:42;;;;;;;;;;;;;;;;;;5026841;28;20356;-71
2023/03/07 01:39:09;;;;;;;;;;;;;;;;;;5026315;28;19959;-71
2023/03/07 01:41:39;;;;;;;;;;;;;;;;;;5018667;28;19932;-70
2023/03/07 01:44:05;;;;;;;;;;;;;;;;;;5025551;28;20201;-69
2023/03/07 01:46:30;;;;;;;;;;;;;;;;;;5026446;28;19990;-69
2023/03/07 01:48:55;;;;;;;;;;;;;;;;;;5011751;28;22111;-69
2023/03/07 01:51:21;;;;;;;;;;;;;;;;;;5026214;28;19928;-70
2023/03/07 01:53:46;;;;;;;;;;;;;;;;;;5027108;28;19964;-69
2023/03/07 01:56:14;;;;;;;;;;;;;;;;;;5026992;28;21807;-70
2023/03/07 01:58:39;;;;;;;;;;;;;;;;;;5008071;28;19921;-69
2023/03/07 02:01:07;;;;;;;;;;;;;;;;;;5010134;28;19931;-72
2023/03/07 02:03:32;;;;;;;;;;;;;;;;;;5023118;28;20481;-69
2023/03/07 02:06:00;;;;;;;;;;;;;;;;;;5028178;28;20019;-70
2023/03/07 02:08:26;;;;;;;;;;;;;;;;;;5022826;28;19917;-71
2023/03/07 02:10:51;;;;;;;;;;;;;;;;;;5010625;28;19921;-70
2023/03/07 02:13:17;;;;;;;;;;;;;;;;;;5006530;28;19921;-69
2023/03/07 02:15:42;;;;;;;;;;;;;;;;;;5010880;28;19920;-70
2023/03/07 02:18:08;;;;;;;;;;;;;;;;;;5024294;28;19917;-69
2023/03/07 02:20:33;;;;;;;;;;;;;;;;;;5012159;28;20883;-72
2023/03/07 02:22:58;;;;;;;;;;;;;;;;;;5027037;28;19927;-68
2023/03/07 02:25:23;;;;;;;;;;;;;;;;;;5027061;28;19979;-71
2023/03/07 02:27:50;;;;;;;;;;;;;;;;;;5019217;28;19917;-70
2023/03/07 02:30:18;;;;;;;;;;;;;;;;;;5022301;28;20088;-71
2023/03/07 02:32:44;;;;;;;;;;;;;;;;;;5023379;28;20439;-70
2023/03/07 02:35:11;;;;;;;;;;;;;;;;;;5020947;28;19959;-68
2023/03/07 02:37:37;;;;;;;;;;;;;;;;;;5023141;28;20177;-70
2023/03/07 02:40:04;;;;;;;;;;;;;;;;;;5016591;28;19927;-69
2023/03/07 02:42:29;;;;;;;;;;;;;;;;;;5016815;28;19935;-70
2023/03/07 02:44:55;;;;;;;;;;;;;;;;;;5019022;28;19921;-69
2023/03/07 02:47:20;;;;;;;;;;;;;;;;;;5000896;28;21081;-71
2023/03/07 02:49:47;;;;;;;;;;;;;;;;;;5023106;28;19917;-70
2023/03/07 02:55:32;;;;;;;;;;;;;;;;;;5018460;28;20542;-70
2023/03/07 02:57:57;;;;;;;;;;;;;;;;;;5015372;28;19947;-67
2023/03/07 03:00:23;;;;;;;;;;;;;;;;;;5019403;28;19921;-68
2023/03/07 03:02:48;;;;;;;;;;;;;;;;;;5016871;28;20445;-68
2023/03/07 03:05:13;;;;;;;;;;;;;;;;;;5022659;28;19921;-69
2023/03/07 03:07:43;;;;;;;;;;;;;;;;;;5018069;28;19924;-65
2023/03/07 03:10:11;;;;;;;;;;;;;;;;;;5021636;28;20017;-69
2023/03/07 03:12:37;;;;;;;;;;;;;;;;;;5022440;28;20011;-69
2023/03/07 03:15:02;;;;;;;;;;;;;;;;;;5026391;28;20611;-68
2023/03/07 03:17:27;;;;;;;;;;;;;;;;;;5025078;28;20115;-68
2023/03/07 03:19:55;;;;;;;;;;;;;;;;;;5026217;28;19969;-68
2023/03/07 03:22:20;;;;;;;;;;;;;;;;;;5025000;28;20372;-69
2023/03/07 03:24:46;;;;;;;;;;;;;;;;;;5022752;28;19923;-68
2023/03/07 03:27:11;;;;;;;;;;;;;;;;;;5019246;28;19932;-69
2023/03/07 03:29:37;;;;;;;;;;;;;;;;;;5026349;28;19943;-68
2023/03/07 03:32:02;;;;;;;;;;;;;;;;;;5018381;28;19926;-69
2023/03/07 03:34:27;;;;;;;;;;;;;;;;;;4998972;28;20463;-68
2023/03/07 03:36:53;;;;;;;;;;;;;;;;;;5018112;28;19923;-68
2023/03/07 03:42:06;;;;;;;;;;;;;;;;;;5008574;28;20379;-67
2023/03/07 03:44:34;;;;;;;;;;;;;;;;;;5015672;28;19921;-68
2023/03/07 03:47:00;;;;;;;;;;;;;;;;;;5005558;28;19925;-68
2023/03/07 03:49:25;;;;;;;;;;;;;;;;;;5007528;28;19928;-68
2023/03/07 03:51:54;;;;;;;;;;;;;;;;;;5021526;28;20996;-70
2023/03/07 03:54:19;;;;;;;;;;;;;;;;;;5024969;28;19921;-68
2023/03/07 03:56:47;;;;;;;;;;;;;;;;;;5024666;28;20010;-67
2023/03/07 03:59:12;;;;;;;;;;;;;;;;;;5021209;28;20120;-67
2023/03/07 04:01:40;;;;;;;;;;;;;;;;;;5017919;28;19928;-69
2023/03/07 04:04:08;;;;;;;;;;;;;;;;;;4990652;28;20470;-69
2023/03/07 04:06:36;;;;;;;;;;;;;;;;;;4993022;28;19920;-70
2023/03/07 04:09:03;;;;;;;;;;;;;;;;;;5011375;28;20027;-69
2023/03/07 04:11:29;;;;;;;;;;;;;;;;;;5013746;28;20676;-68
2023/03/07 04:17:11;;;;;;;;;;;;;;;;;;5019655;28;19928;-68
2023/03/07 04:19:37;;;;;;;;;;;;;;;;;;5022273;28;19917;-70
2023/03/07 04:22:08;;;;;;;;;;;;;;;;;;5021986;28;19946;-67
2023/03/07 04:24:33;;;;;;;;;;;;;;;;;;5035560;28;19921;-69
2023/03/07 04:27:02;;;;;;;;;;;;;;;;;;5021092;28;19924;-69
2023/03/07 04:29:48;;;;;;;;;;;;;;;;;;5022623;28;19921;-71
2023/03/07 04:32:14;;;;;;;;;;;;;;;;;;5003330;28;19931;-70
2023/03/07 04:34:39;;;;;;;;;;;;;;;;;;5004314;28;19916;-70
2023/03/07 04:37:04;;;;;;;;;;;;;;;;;;5023035;28;19959;-70
2023/03/07 04:39:32;;;;;;;;;;;;;;;;;;5021683;28;19921;-68
2023/03/07 04:41:58;;;;;;;;;;;;;;;;;;5025269;28;19920;-69
2023/03/07 04:44:23;;;;;;;;;;;;;;;;;;5019197;28;19920;-72
2023/03/07 04:46:48;;;;;;;;;;;;;;;;;;5017773;28;20134;-71
2023/03/07 04:49:17;;;;;;;;;;;;;;;;;;5012940;28;19917;-70
2023/03/07 04:51:42;;;;;;;;;;;;;;;;;;5007818;28;19952;-71
2023/03/07 04:54:07;;;;;;;;;;;;;;;;;;5000047;28;19917;-71
2023/03/07 04:56:33;;;;;;;;;;;;;;;;;;5023518;28;20335;-72
2023/03/07 04:58:58;;;;;;;;;;;;;;;;;;5004685;28;20295;-72
2023/03/07 05:01:24;;;;;;;;;;;;;;;;;;5024619;28;20154;-72
2023/03/07 05:03:49;;;;;;;;;;;;;;;;;;5020313;28;20347;-70
2023/03/07 05:06:17;;;;;;;;;;;;;;;;;;5022733;28;19969;-72
2023/03/07 05:08:43;;;;;;;;;;;;;;;;;;5023954;28;19928;-71
2023/03/07 05:11:08;;;;;;;;;;;;;;;;;;5017433;28;19916;-73
2023/03/07 05:13:33;;;;;;;;;;;;;;;;;;5011177;28;19928;-72
2023/03/07 05:15:59;;;;;;;;;;;;;;;;;;5000750;28;19917;-74
2023/03/07 05:18:25;;;;;;;;;;;;;;;;;;5019453;28;20007;-73
2023/03/07 05:20:50;;;;;;;;;;;;;;;;;;5005861;28;20007;-73
2023/03/07 05:23:15;;;;;;;;;;;;;;;;;;5017169;28;19921;-73
2023/03/07 05:25:41;;;;;;;;;;;;;;;;;;5021117;28;20273;-72
2023/03/07 05:28:06;;;;;;;;;;;;;;;;;;4997737;28;19917;-72
2023/03/07 05:30:31;;;;;;;;;;;;;;;;;;5023530;28;19929;-70
2023/03/07 05:32:57;;;;;;;;;;;;;;;;;;5028246;28;19916;-72
2023/03/07 05:35:23;;;;;;;;;;;;;;;;;;5011234;28;19929;-72
2023/03/07 05:37:49;;;;;;;;;;;;;;;;;;5020101;28;20247;-72
2023/03/07 05:40:14;;;;;;;;;;;;;;;;;;5025456;28;19974;-73
2023/03/07 05:42:40;;;;;;;;;;;;;;;;;;5020493;28;20015;-73
2023/03/07 05:45:05;;;;;;;;;;;;;;;;;;5024147;28;19921;-72
2023/03/07 05:47:38;;;;;;;;;;;;;;;;;;4986665;28;19925;-74
2023/03/07 05:50:04;;;;;;;;;;;;;;;;;;5014201;28;19917;-74
2023/03/07 05:52:29;;;;;;;;;;;;;;;;;;5021834;28;20104;-73
2023/03/07 05:54:54;;;;;;;;;;;;;;;;;;5022605;28;19923;-73
2023/03/07 05:57:20;;;;;;;;;;;;;;;;;;5025538;28;19921;-72
2023/03/07 05:59:45;;;;;;;;;;;;;;;;;;5022509;28;19921;-73
2023/03/07 06:02:11;;;;;;;;;;;;;;;;;;5021086;28;19931;-72
2023/03/07 06:04:36;;;;;;;;;;;;;;;;;;5019493;28;20215;-71
2023/03/07 06:07:04;;;;;;;;;;;;;;;;;;5024859;28;19921;-72
2023/03/07 06:09:29;;;;;;;;;;;;;;;;;;5027102;28;20003;-72
2023/03/07 06:11:55;;;;;;;;;;;;;;;;;;5029607;28;19921;-72
2023/03/07 06:14:20;;;;;;;;;;;;;;;;;;5028366;28;20420;-74
2023/03/07 06:16:45;;;;;;;;;;;;;;;;;;5028096;28;19921;-73
2023/03/07 06:19:11;;;;;;;;;;;;;;;;;;5028180;28;19916;-72
2023/03/07 06:21:36;;;;;;;;;;;;;;;;;;5028108;28;19924;-71
2023/03/07 06:24:02;;;;;;;;;;;;;;;;;;5011119;28;19916;-73
2023/03/07 06:29:43;;;;;;;;;;;;;;;;;;5030205;28;20461;-73
2023/03/07 06:32:08;;;;;;;;;;;;;;;;;;5008534;28;20231;-72
2023/03/07 06:34:34;;;;;;;;;;;;;;;;;;5027754;28;19920;-72
2023/03/07 06:36:59;;;;;;;;;;;;;;;;;;5021784;28;20370;-73
2023/03/07 06:39:25;;;;;;;;;;;;;;;;;;5025833;28;19921;-74
2023/03/07 06:41:54;;;;;;;;;;;;;;;;;;5024734;28;19947;-74
2023/03/07 06:44:19;;;;;;;;;;;;;;;;;;5018218;28;20486;-73
2023/03/07 06:46:44;;;;;;;;;;;;;;;;;;5024336;28;19916;-73
2023/03/07 06:49:10;;;;;;;;;;;;;;;;;;5029135;28;19925;-73
2023/03/07 06:51:37;;;;;;;;;;;;;;;;;;5011605;28;20500;-73
2023/03/07 06:54:03;;;;;;;;;;;;;;;;;;5028060;28;20019;-73
2023/03/07 06:56:30;;;;;;;;;;;;;;;;;;5024847;28;20029;-73
2023/03/07 06:58:55;;;;;;;;;;;;;;;;;;5026988;28;20018;-72
2023/03/07 07:01:21;;;;;;;;;;;;;;;;;;5027390;28;19928;-73
2023/03/07 07:03:49;;;;;;;;;;;;;;;;;;5026611;28;19950;-73
2023/03/07 07:06:17;;;;;;;;;;;;;;;;;;5028099;28;20384;-73
2023/03/07 07:08:43;;;;;;;;;;;;;;;;;;5029203;28;19928;-73
2023/03/07 07:11:08;;;;;;;;;;;;;;;;;;5027583;28;19927;-73
2023/03/07 07:13:33;;;;;;;;;;;;;;;;;;5029807;28;20299;-73
2023/03/07 07:16:00;;;;;;;;;;;;;;;;;;5025011;28;20195;-73
2023/03/07 07:18:25;;;;;;;;;;;;;;;;;;5007803;28;19917;-72
2023/03/07 07:20:50;;;;;;;;;;;;;;;;;;5027959;28;19924;-73
2023/03/07 07:23:16;;;;;;;;;;;;;;;;;;5025620;28;19927;-73
2023/03/07 07:25:41;;;;;;;;;;;;;;;;;;5028463;28;19933;-73
2023/03/07 07:28:06;;;;;;;;;;;;;;;;;;5025455;28;19917;-71
2023/03/07 07:30:32;;;;;;;;;;;;;;;;;;5007263;28;20322;-73
2023/03/07 07:32:57;;;;;;;;;;;;;;;;;;5025726;28;19945;-72
2023/03/07 07:35:22;;;;;;;;;;;;;;;;;;5028426;28;19971;-73
2023/03/07 07:37:47;;;;;;;;;;;;;;;;;;5024970;28;19988;-72
2023/03/07 07:40:14;;;;;;;;;;;;;;;;;;5027120;28;19917;-72
2023/03/07 07:42:39;;;;;;;;;;;;;;;;;;5022645;28;19965;-72
2023/03/07 07:45:05;;;;;;;;;;;;;;;;;;5024154;28;19928;-72
2023/03/07 07:47:30;;;;;;;;;;;;;;;;;;5021758;28;19921;-71
2023/03/07 07:49:55;;;;;;;;;;;;;;;;;;5016494;28;19920;-73
2023/03/07 07:52:23;;;;;;;;;;;;;;;;;;5005052;28;19928;-72
2023/03/07 07:54:49;;;;;;;;;;;;;;;;;;5025815;28;20386;-72
2023/03/07 07:57:17;;;;;;;;;;;;;;;;;;5025463;28;19921;-72
2023/03/07 07:59:42;;;;;;;;;;;;;;;;;;5024143;28;19927;-72
2023/03/07 08:02:08;;;;;;;;;;;;;;;;;;5007997;28;20926;-72
2023/03/07 08:04:34;;;;;;;;;;;;;;;;;;5022455;28;19964;-72
2023/03/07 08:06:59;;;;;;;;;;;;;;;;;;5025090;28;20035;-73
2023/03/07 08:09:25;;;;;;;;;;;;;;;;;;5023911;28;20160;-72
2023/03/07 08:11:50;;;;;;;;;;;;;;;;;;5027601;28;19982;-73
2023/03/07 08:14:15;;;;;;;;;;;;;;;;;;5030434;28;20031;-73
2023/03/07 08:16:43;;;;;;;;;;;;;;;;;;5026238;28;20252;-72
2023/03/07 08:19:09;;;;;;;;;;;;;;;;;;5027160;28;19927;-71
2023/03/07 08:21:34;;;;;;;;;;;;;;;;;;5002638;28;19933;-72
2023/03/07 08:24:00;;;;;;;;;;;;;;;;;;5023493;28;19917;-73
2023/03/07 08:26:25;;;;;;;;;;;;;;;;;;5024862;28;21444;-71
2023/03/07 08:28:53;;;;;;;;;;;;;;;;;;5029775;28;20015;-72
2023/03/07 08:31:18;;;;;;;;;;;;;;;;;;5023359;28;20067;-71
2023/03/07 08:33:44;;;;;;;;;;;;;;;;;;5022701;28;19924;-71
2023/03/07 08:36:09;;;;;;;;;;;;;;;;;;5028858;28;20308;-73
2023/03/07 08:38:35;;;;;;;;;;;;;;;;;;5023938;28;19968;-71
2023/03/07 08:41:00;;;;;;;;;;;;;;;;;;5025002;28;19921;-69
2023/03/07 08:43:26;;;;;;;;;;;;;;;;;;5005615;28;20310;-69
2023/03/07 08:45:51;;;;;;;;;;;;;;;;;;5026976;28;20348;-70
2023/03/07 08:48:16;;;;;;;;;;;;;;;;;;5024762;28;20490;-70
2023/03/07 08:50:42;;;;;;;;;;;;;;;;;;5029731;28;19924;-71
2023/03/07 08:53:10;;;;;;;;;;;;;;;;;;5032975;28;19927;-70
2023/03/07 08:55:35;;;;;;;;;;;;;;;;;;5010667;28;19921;-70
2023/03/07 08:58:00;;;;;;;;;;;;;;;;;;5027249;28;19916;-69
2023/03/07 09:00:26;;;;;;;;;;;;;;;;;;5008079;28;19917;-71
2023/03/07 09:02:57;;;;;;;;;;;;;;;;;;5021570;28;19916;-72
2023/03/07 09:05:22;;;;;;;;;;;;;;;;;;5028664;28;19973;-70
2023/03/07 09:07:50;;;;;;;;;;;;;;;;;;5027203;28;19939;-71
2023/03/07 09:10:19;;;;;;;;;;;;;;;;;;5007910;28;19964;-70
2023/03/07 09:12:50;;;;;;;;;;;;;;;;;;5028411;28;19932;-71
2023/03/07 09:15:15;;;;;;;;;;;;;;;;;;5030569;28;19916;-71
2023/03/07 09:17:40;;;;;;;;;;;;;;;;;;5011448;28;20387;-71
2023/03/07 09:20:10;;;;;;;;;;;;;;;;;;5029457;28;19983;-71
2023/03/07 09:22:35;;;;;;;;;;;;;;;;;;5010563;28;19932;-71
2023/03/07 09:25:03;;;;;;;;;;;;;;;;;;5030423;28;20010;-73
2023/03/07 09:27:28;;;;;;;;;;;;;;;;;;5010312;28;19925;-72
2023/03/07 09:29:53;;;;;;;;;;;;;;;;;;5029669;28;20014;-73
2023/03/07 09:32:19;;;;;;;;;;;;;;;;;;5027846;28;20205;-71
2023/03/07 09:34:44;;;;;;;;;;;;;;;;;;5033098;28;19960;-72
2023/03/07 09:37:12;;;;;;;;;;;;;;;;;;5024208;28;20446;-72
2023/03/07 09:39:37;;;;;;;;;;;;;;;;;;5008248;28;21634;-73
2023/03/07 09:42:02;;;;;;;;;;;;;;;;;;5027334;28;20425;-71
2023/03/07 09:44:28;;;;;;;;;;;;;;;;;;5025597;28;20298;-71
2023/03/07 09:46:55;;;;;;;;;;;;;;;;;;5029300;28;19917;-71
2023/03/07 09:49:23;;;;;;;;;;;;;;;;;;5028028;28;20512;-71
2023/03/07 09:51:48;;;;;;;;;;;;;;;;;;5028366;28;19920;-71
2023/03/07 09:54:17;;;;;;;;;;;;;;;;;;5025807;28;20019;-70
2023/03/07 09:56:42;;;;;;;;;;;;;;;;;;5012176;28;19917;-71
2023/03/07 09:59:10;;;;;;;;;;;;;;;;;;5027189;28;19963;-71
2023/03/07 10:01:35;;;;;;;;;;;;;;;;;;5025837;28;20025;-69
2023/03/07 10:04:00;;;;;;;;;;;;;;;;;;5025549;28;19923;-69
2023/03/07 10:06:29;;;;;;;;;;;;;;;;;;5003233;28;20050;-71
2023/03/07 10:08:54;;;;;;;;;;;;;;;;;;5023790;28;19924;-70
2023/03/07 10:11:21;;;;;;;;;;;;;;;;;;5027066;28;19916;-71
2023/03/07 10:13:47;;;;;;;;;;;;;;;;;;5027371;28;20418;-71
2023/03/07 10:16:12;;;;;;;;;;;;;;;;;;5003293;28;19991;-71
2023/03/07 10:18:38;;;;;;;;;;;;;;;;;;5025562;28;19916;-71
2023/03/07 10:21:03;;;;;;;;;;;;;;;;;;5028597;28;19948;-69
2023/03/07 10:23:29;;;;;;;;;;;;;;;;;;5027167;28;19917;-71
2023/03/07 10:25:58;;;;;;;;;;;;;;;;;;5010552;28;20164;-72
2023/03/07 10:28:26;;;;;;;;;;;;;;;;;;5029846;28;20156;-72
2023/03/07 10:30:51;;;;;;;;;;;;;;;;;;5020263;28;20167;-71
2023/03/07 10:33:17;;;;;;;;;;;;;;;;;;5031085;28;20197;-71
2023/03/07 10:35:42;;;;;;;;;;;;;;;;;;5009116;28;20411;-71
2023/03/07 10:38:07;;;;;;;;;;;;;;;;;;5022782;28;19955;-70
2023/03/07 10:40:35;;;;;;;;;;;;;;;;;;5009732;28;20797;-70
2023/03/07 10:43:00;;;;;;;;;;;;;;;;;;5007369;28;20081;-70
2023/03/07 10:45:29;;;;;;;;;;;;;;;;;;5025851;28;20552;-71
2023/03/07 10:47:57;;;;;;;;;;;;;;;;;;5027271;28;20755;-72
2023/03/07 10:50:22;;;;;;;;;;;;;;;;;;5025317;28;19934;-72
2023/03/07 10:52:47;;;;;;;;;;;;;;;;;;5028923;28;19932;-72
2023/03/07 10:55:12;;;;;;;;;;;;;;;;;;5003431;28;19966;-73
2023/03/07 10:57:38;;;;;;;;;;;;;;;;;;5026389;28;19974;-71
2023/03/07 11:00:03;;;;;;;;;;;;;;;;;;5028917;28;20033;-73
2023/03/07 11:02:29;;;;;;;;;;;;;;;;;;5024526;28;19929;-74
2023/03/07 11:04:55;;;;;;;;;;;;;;;;;;5011211;28;20407;-73
2023/03/07 11:07:20;;;;;;;;;;;;;;;;;;5026847;28;20556;-74
2023/03/07 11:09:45;;;;;;;;;;;;;;;;;;5029154;28;19921;-73
2023/03/07 11:12:11;;;;;;;;;;;;;;;;;;5023377;28;19920;-74
2023/03/07 11:14:38;;;;;;;;;;;;;;;;;;5025085;28;19916;-71
2023/03/07 11:17:04;;;;;;;;;;;;;;;;;;5026789;28;19923;-72
2023/03/07 11:19:32;;;;;;;;;;;;;;;;;;5025330;28;20683;-72
2023/03/07 11:21:57;;;;;;;;;;;;;;;;;;5024181;28;19920;-73
2023/03/07 11:24:26;;;;;;;;;;;;;;;;;;5003741;28;19952;-73
2023/03/07 11:26:54;;;;;;;;;;;;;;;;;;5027677;28;20233;-74
2023/03/07 11:29:19;;;;;;;;;;;;;;;;;;5008515;28;20375;-73
2023/03/07 11:31:44;;;;;;;;;;;;;;;;;;5026021;28;19984;-74
2023/03/07 11:34:10;;;;;;;;;;;;;;;;;;5027744;28;20368;-74
2023/03/07 11:36:37;;;;;;;;;;;;;;;;;;5042541;28;20407;-73
2023/03/07 11:39:03;;;;;;;;;;;;;;;;;;5009322;28;19920;-73
2023/03/07 11:41:28;;;;;;;;;;;;;;;;;;5021981;28;19931;-72
2023/03/07 11:43:55;;;;;;;;;;;;;;;;;;5009719;28;20210;-71
2023/03/07 11:46:20;;;;;;;;;;;;;;;;;;5007642;28;19938;-72
2023/03/07 11:48:48;;;;;;;;;;;;;;;;;;5027504;28;20319;-72
2023/03/07 11:51:14;;;;;;;;;;;;;;;;;;5007482;28;19917;-72
2023/03/07 11:53:39;;;;;;;;;;;;;;;;;;5015119;28;20283;-73
2023/03/07 11:56:04;;;;;;;;;;;;;;;;;;5030381;28;19928;-73
2023/03/07 11:58:32;;;;;;;;;;;;;;;;;;5006821;28;20445;-73
2023/03/07 12:01:00;;;;;;;;;;;;;;;;;;5027990;28;20005;-74
2023/03/07 12:03:25;;;;;;;;;;;;;;;;;;5024058;28;19987;-72
2023/03/07 12:05:53;;;;;;;;;;;;;;;;;;5028550;28;20054;-72
2023/03/07 12:08:19;;;;;;;;;;;;;;;;;;5024126;28;19990;-73
2023/03/07 12:10:47;;;;;;;;;;;;;;;;;;5007942;28;20034;-73
2023/03/07 12:13:15;;;;;;;;;;;;;;;;;;5004828;28;20424;-74
2023/03/07 12:15:40;;;;;;;;;;;;;;;;;;5026821;28;20240;-73
2023/03/07 12:18:05;;;;;;;;;;;;;;;;;;5026246;28;19917;-73
2023/03/07 12:20:33;;;;;;;;;;;;;;;;;;5042621;28;20034;-73
2023/03/07 12:22:58;;;;;;;;;;;;;;;;;;5025462;28;19921;-73
2023/03/07 12:25:23;;;;;;;;;;;;;;;;;;5011058;28;19955;-71
2023/03/07 12:27:49;;;;;;;;;;;;;;;;;;5016401;28;19946;-73
2023/03/07 12:30:17;;;;;;;;;;;;;;;;;;5003124;28;21481;-73
2023/03/07 12:32:42;;;;;;;;;;;;;;;;;;5025713;28;19916;-74
2023/03/07 12:35:08;;;;;;;;;;;;;;;;;;5027332;28;20547;-74
2023/03/07 12:37:38;;;;;;;;;;;;;;;;;;5026919;28;20041;-73
2023/03/07 12:40:03;;;;;;;;;;;;;;;;;;5028432;28;20422;-73
2023/03/07 12:42:28;;;;;;;;;;;;;;;;;;5018525;28;19932;-72
2023/03/07 12:44:54;;;;;;;;;;;;;;;;;;5020219;28;19969;-72
2023/03/07 12:47:19;;;;;;;;;;;;;;;;;;5003796;28;19917;-73
2023/03/07 12:49:44;;;;;;;;;;;;;;;;;;5022039;28;20256;-71
2023/03/07 12:52:10;;;;;;;;;;;;;;;;;;5020624;28;20003;-73
2023/03/07 12:54:35;;;;;;;;;;;;;;;;;;5017040;28;19925;-73
2023/03/07 12:57:00;;;;;;;;;;;;;;;;;;5028636;28;19917;-73
2023/03/07 12:59:28;;;;;;;;;;;;;;;;;;5028635;28;19920;-73
2023/03/07 13:01:53;;;;;;;;;;;;;;;;;;5017901;28;19928;-73
2023/03/07 13:04:18;;;;;;;;;;;;;;;;;;5021385;28;20004;-73
2023/03/07 13:06:43;;;;;;;;;;;;;;;;;;5024267;28;20018;-73
2023/03/07 13:09:11;;;;;;;;;;;;;;;;;;5036207;28;20011;-73
2023/03/07 13:11:38;;;;;;;;;;;;;;;;;;5004462;28;20283;-72
2023/03/07 13:14:04;;;;;;;;;;;;;;;;;;5015670;28;19927;-75
2023/03/07 13:16:29;;;;;;;;;;;;;;;;;;5020026;28;20319;-73
2023/03/07 13:18:55;;;;;;;;;;;;;;;;;;5008122;28;19943;-74
2023/03/07 13:21:20;;;;;;;;;;;;;;;;;;5024053;28;19928;-72
2023/03/07 13:23:45;;;;;;;;;;;;;;;;;;5026445;28;21096;-72
2023/03/07 13:26:11;;;;;;;;;;;;;;;;;;5022292;28;19924;-74
2023/03/07 13:28:36;;;;;;;;;;;;;;;;;;5009029;28;19920;-73
2023/03/07 13:31:15;;;;;;;;;;;;;;;;;;5045184;28;19920;-72
2023/03/07 13:33:40;;;;;;;;;;;;;;;;;;5048569;28;20324;-73
2023/03/07 13:36:07;;;;;;;;;;;;;;;;;;5031200;28;19928;-72
2023/03/07 13:38:43;;;;;;;;;;;;;;;;;;5023815;28;20493;-72
2023/03/07 13:41:08;;;;;;;;;;;;;;;;;;5043482;28;19924;-72
2023/03/07 13:46:51;;;;;;;;;;;;;;;;;;5043823;28;20003;-72
2023/03/07 13:49:16;;;;;;;;;;;;;;;;;;5024197;28;19975;-72
2023/03/07 13:51:41;;;;;;;;;;;;;;;;;;5016704;28;19925;-71
2023/03/07 13:54:07;;;;;;;;;;;;;;;;;;5021257;28;19943;-71
2023/03/07 13:56:37;;;;;;;;;;;;;;;;;;5022117;28;20896;-71
2023/03/07 13:59:05;;;;;;;;;;;;;;;;;;5013380;28;19921;-72
2023/03/07 14:01:31;;;;;;;;;;;;;;;;;;5021366;28;19925;-72
2023/03/07 14:03:57;;;;;;;;;;;;;;;;;;5023604;28;19921;-72
2023/03/07 14:06:22;;;;;;;;;;;;;;;;;;5007964;28;19916;-73
2023/03/07 14:08:47;;;;;;;;;;;;;;;;;;5006757;28;19936;-71
2023/03/07 14:11:13;;;;;;;;;;;;;;;;;;5026656;28;19955;-72
2023/03/07 14:13:41;;;;;;;;;;;;;;;;;;5008269;28;19920;-73
2023/03/07 14:16:07;;;;;;;;;;;;;;;;;;5005718;28;19921;-71
2023/03/07 14:18:32;;;;;;;;;;;;;;;;;;5022424;28;20578;-72
2023/03/07 14:21:04;;;;;;;;;;;;;;;;;;5025184;28;19925;-71
2023/03/07 14:23:30;;;;;;;;;;;;;;;;;;5020625;28;19920;-72
2023/03/07 14:25:57;;;;;;;;;;;;;;;;;;5024193;28;20360;-71
2023/03/07 14:28:25;;;;;;;;;;;;;;;;;;5037282;28;19917;-76
2023/03/07 14:30:53;;;;;;;;;;;;;;;;;;5021117;28;19916;-73
2023/03/07 14:33:18;;;;;;;;;;;;;;;;;;5021477;28;21175;-72
2023/03/07 14:35:46;;;;;;;;;;;;;;;;;;5017965;28;19975;-72
2023/03/07 14:38:11;;;;;;;;;;;;;;;;;;5000165;28;20867;-73
2023/03/07 14:40:39;;;;;;;;;;;;;;;;;;5020884;28;19971;-71
2023/03/07 14:43:05;;;;;;;;;;;;;;;;;;5022190;28;20175;-71
2023/03/07 14:45:32;;;;;;;;;;;;;;;;;;5026011;28;19927;-72
2023/03/07 14:47:58;;;;;;;;;;;;;;;;;;5007267;28;20043;-72
2023/03/07 14:50:23;;;;;;;;;;;;;;;;;;5025327;28;19962;-73
2023/03/07 14:52:50;;;;;;;;;;;;;;;;;;5019244;28;19921;-71
2023/03/07 14:55:15;;;;;;;;;;;;;;;;;;5024040;28;19979;-72
2023/03/07 14:57:45;;;;;;;;;;;;;;;;;;5004494;28;19924;-72
2023/03/07 15:00:10;;;;;;;;;;;;;;;;;;5027918;28;20203;-72
2023/03/07 15:02:35;;;;;;;;;;;;;;;;;;5019920;28;20015;-72
2023/03/07 15:05:01;;;;;;;;;;;;;;;;;;5028579;28;20080;-73
2023/03/07 15:07:26;;;;;;;;;;;;;;;;;;5025924;28;20016;-73
2023/03/07 15:09:52;;;;;;;;;;;;;;;;;;5015417;28;19931;-74
2023/03/07 15:12:17;;;;;;;;;;;;;;;;;;5019038;28;20037;-72
2023/03/07 15:14:46;;;;;;;;;;;;;;;;;;5024508;28;20175;-75
2023/03/07 15:17:14;;;;;;;;;;;;;;;;;;5004674;28;19927;-73
2023/03/07 15:19:44;;;;;;;;;;;;;;;;;;5022774;28;19917;-70
2023/03/07 15:22:13;;;;;;;;;;;;;;;;;;5007762;28;19959;-72
2023/03/07 15:24:38;;;;;;;;;;;;;;;;;;5018363;28;19959;-73
2023/03/07 15:27:09;;;;;;;;;;;;;;;;;;5015564;28;19946;-70
2023/03/07 15:29:34;;;;;;;;;;;;;;;;;;5023612;28;20417;-72
2023/03/07 15:32:01;;;;;;;;;;;;;;;;;;5021819;28;19917;-70
2023/03/07 15:34:26;;;;;;;;;;;;;;;;;;5018224;28;20279;-71
2023/03/07 15:36:52;;;;;;;;;;;;;;;;;;5003307;28;19920;-70
2023/03/07 15:39:19;;;;;;;;;;;;;;;;;;5007430;28;19935;-72
2023/03/07 15:41:48;;;;;;;;;;;;;;;;;;5020982;28;19924;-71
2023/03/07 15:44:15;;;;;;;;;;;;;;;;;;5022204;28;20380;-70
2023/03/07 15:46:41;;;;;;;;;;;;;;;;;;5006821;28;19978;-69
2023/03/07 15:49:06;;;;;;;;;;;;;;;;;;5023966;28;20334;-70
2023/03/07 15:51:31;;;;;;;;;;;;;;;;;;5007040;28;19921;-70
2023/03/07 15:53:56;;;;;;;;;;;;;;;;;;5006929;28;19928;-70
2023/03/07 15:56:24;;;;;;;;;;;;;;;;;;5025081;28;19924;-70
2023/03/07 15:58:49;;;;;;;;;;;;;;;;;;5023946;28;20039;-69
2023/03/07 16:01:15;;;;;;;;;;;;;;;;;;5023243;28;19928;-71
2023/03/07 16:03:42;;;;;;;;;;;;;;;;;;5022797;28;19923;-69
2023/03/07 16:06:11;;;;;;;;;;;;;;;;;;5023619;28;19928;-70
2023/03/07 16:08:41;;;;;;;;;;;;;;;;;;5005720;28;19920;-71
2023/03/07 16:11:09;;;;;;;;;;;;;;;;;;5002414;28;19983;-71
2023/03/07 16:16:27;;;;;;;;;;;;;;;;;;5024310;28;20369;-70
2023/03/07 16:18:58;;;;;;;;;;;;;;;;;;5022670;28;20576;-70
2023/03/07 16:21:26;;;;;;;;;;;;;;;;;;5005059;28;19931;-69
2023/03/07 16:23:54;;;;;;;;;;;;;;;;;;5023968;28;19920;-69
2023/03/07 16:26:22;;;;;;;;;;;;;;;;;;5023214;28;19920;-71
2023/03/07 16:28:50;;;;;;;;;;;;;;;;;;5005515;28;19928;-70
2023/03/07 16:31:15;;;;;;;;;;;;;;;;;;5003252;28;20384;-70
2023/03/07 16:33:40;;;;;;;;;;;;;;;;;;5004673;28;20013;-70
2023/03/07 16:36:06;;;;;;;;;;;;;;;;;;5021965;28;19921;-70
2023/03/07 16:38:31;;;;;;;;;;;;;;;;;;4999124;28;20010;-70
2023/03/07 16:40:59;;;;;;;;;;;;;;;;;;5018707;28;19924;-70
2023/03/07 16:43:27;;;;;;;;;;;;;;;;;;5021957;28;19924;-69
2023/03/07 16:45:52;;;;;;;;;;;;;;;;;;5024914;28;19921;-71
2023/03/07 16:48:17;;;;;;;;;;;;;;;;;;5024476;28;20370;-72
2023/03/07 16:50:43;;;;;;;;;;;;;;;;;;5020712;28;20004;-70
2023/03/07 16:53:11;;;;;;;;;;;;;;;;;;5018431;28;20074;-71
2023/03/07 16:55:36;;;;;;;;;;;;;;;;;;5026012;28;20011;-71
2023/03/07 16:58:04;;;;;;;;;;;;;;;;;;5023611;28;21644;-71
2023/03/07 17:00:32;;;;;;;;;;;;;;;;;;5022829;28;20090;-71